sensor_id;sensor_type;location;lat;lon;timestamp;P1;durP1;ratioP1;P2;durP2;ratioP2
9667;SDS011;4872;48.316;10.650;2023-06-26T04:08:40;12.83;;;9.53;;
9667;SDS011;4872;48.316;10.650;2023-06-26T04:11:07;12.27;;;9.83;;
9667;SDS011;4872;48.316;10.650;2023-06-26T04:13:34;11.80;;;10.53;;
9667;SDS011;4872;48.316;10.650;2023-06-26T04:16:00;12.83;;;10.17;;
9667;SDS011;4872;48.316;10.650;2023-06-26T04:18:27;14.33;;;10.93;;
9667;SDS011;4872;48.316;10.650;2023-06-26T04:21:03;15.80;;;10.70;;
9667;SDS011;4872;48.316;10.650;2023-06-26T04:23:31;12.83;;;10.43;;
9667;SDS011;4872;48.316;10.650;2023-06-26T04:25:59;12.63;;;9.97;;
9667;SDS011;4872;48.316;10.650;2023-06-26T04:28:27;15.10;;;10.97;;
9667;SDS011;4872;48.316;10.650;2023-06-26T04:30:54;11.80;;;10.10;;
9667;SDS011;4872;48.316;10.650;2023-06-26T04:33:21;13.67;;;10.13;;
9667;SDS011;4872;48.316;10.650;2023-06-26T04:35:48;13.40;;;10.73;;
9667;SDS011;4872;48.316;10.650;2023-06-26T04:38:15;13.90;;;10.73;;
9667;SDS011;4872;48.316;10.650;2023-06-26T04:40:41;15.33;;;11.23;;
9667;SDS011;4872;48.316;10.650;2023-06-26T04:43:09;13.33;;;10.87;;
9667;SDS011;4872;48.316;10.650;2023-06-26T04:45:36;15.37;;;12.37;;
9667;SDS011;4872;48.316;10.650;2023-06-26T04:48:03;14.77;;;11.97;;
9667;SDS011;4872;48.316;10.650;2023-06-26T04:50:30;13.10;;;11.07;;
9667;SDS011;4872;48.316;10.650;2023-06-26T04:52:58;15.23;;;11.87;;
9667;SDS011;4872;48.316;10.650;2023-06-26T04:55:25;14.00;;;11.80;;
9667;SDS011;4872;48.316;10.650;2023-06-26T04:57:53;13.30;;;11.07;;
9667;SDS011;4872;48.316;10.650;2023-06-26T05:00:21;14.10;;;12.03;;
9667;SDS011;4872;48.316;10.650;2023-06-26T05:02:50;16.17;;;11.83;;
9667;SDS011;4872;48.316;10.650;2023-06-26T05:05:24;15.47;;;11.63;;
9667;SDS011;4872;48.316;10.650;2023-06-26T05:07:52;12.83;;;10.93;;
9667;SDS011;4872;48.316;10.650;2023-06-26T05:10:19;13.03;;;11.17;;
9667;SDS011;4872;48.316;10.650;2023-06-26T05:12:46;14.23;;;11.63;;
9667;SDS011;4872;48.316;10.650;2023-06-26T05:15:13;14.50;;;11.73;;
9667;SDS011;4872;48.316;10.650;2023-06-26T05:17:41;14.50;;;11.57;;
9667;SDS011;4872;48.316;10.650;2023-06-26T05:20:08;13.27;;;10.93;;
9667;SDS011;4872;48.316;10.650;2023-06-26T05:22:36;13.33;;;11.57;;
9667;SDS011;4872;48.316;10.650;2023-06-26T05:25:05;14.00;;;12.40;;
9667;SDS011;4872;48.316;10.650;2023-06-26T05:27:35;14.40;;;11.50;;
9667;SDS011;4872;48.316;10.650;2023-06-26T05:30:02;14.87;;;11.67;;
9667;SDS011;4872;48.316;10.650;2023-06-26T05:32:29;14.33;;;11.77;;
9667;SDS011;4872;48.316;10.650;2023-06-26T05:35:02;13.23;;;11.10;;
9667;SDS011;4872;48.316;10.650;2023-06-26T05:37:29;14.60;;;12.10;;
9667;SDS011;4872;48.316;10.650;2023-06-26T05:39:58;14.13;;;12.47;;
9667;SDS011;4872;48.316;10.650;2023-06-26T05:42:25;14.20;;;11.20;;
9667;SDS011;4872;48.316;10.650;2023-06-26T05:44:53;14.70;;;12.23;;
9667;SDS011;4872;48.316;10.650;2023-06-26T05:47:19;15.50;;;11.73;;
9667;SDS011;4872;48.316;10.650;2023-06-26T05:49:46;11.90;;;10.50;;
9667;SDS011;4872;48.316;10.650;2023-06-26T05:52:15;13.97;;;11.73;;
9667;SDS011;4872;48.316;10.650;2023-06-26T05:54:42;14.20;;;11.73;;
9667;SDS011;4872;48.316;10.650;2023-06-26T05:57:09;13.83;;;11.57;;
9667;SDS011;4872;48.316;10.650;2023-06-26T05:59:39;13.67;;;11.57;;
9667;SDS011;4872;48.316;10.650;2023-06-26T06:02:06;12.33;;;10.10;;
9667;SDS011;4872;48.316;10.650;2023-06-26T06:04:33;14.53;;;11.20;;
9667;SDS011;4872;48.316;10.650;2023-06-26T06:07:02;11.30;;;10.10;;
9667;SDS011;4872;48.316;10.650;2023-06-26T06:09:30;12.60;;;10.33;;
9667;SDS011;4872;48.316;10.650;2023-06-26T06:11:58;11.60;;;10.23;;
9667;SDS011;4872;48.316;10.650;2023-06-26T06:14:26;12.30;;;10.17;;
9667;SDS011;4872;48.316;10.650;2023-06-26T06:16:53;12.30;;;10.77;;
9667;SDS011;4872;48.316;10.650;2023-06-26T06:19:19;11.43;;;10.23;;
9667;SDS011;4872;48.316;10.650;2023-06-26T06:21:46;12.77;;;11.03;;
9667;SDS011;4872;48.316;10.650;2023-06-26T06:24:13;11.23;;;9.97;;
9667;SDS011;4872;48.316;10.650;2023-06-26T06:26:41;12.97;;;10.60;;
9667;SDS011;4872;48.316;10.650;2023-06-26T06:29:07;11.93;;;10.33;;
9667;SDS011;4872;48.316;10.650;2023-06-26T06:31:34;11.77;;;10.23;;
9667;SDS011;4872;48.316;10.650;2023-06-26T06:34:01;11.97;;;10.10;;
9667;SDS011;4872;48.316;10.650;2023-06-26T06:36:28;10.30;;;9.20;;
9667;SDS011;4872;48.316;10.650;2023-06-26T06:38:55;11.17;;;9.50;;
9667;SDS011;4872;48.316;10.650;2023-06-26T06:41:21;11.33;;;8.87;;
9667;SDS011;4872;48.316;10.650;2023-06-26T06:43:49;10.13;;;9.13;;
9667;SDS011;4872;48.316;10.650;2023-06-26T06:46:16;10.90;;;8.37;;
9667;SDS011;4872;48.316;10.650;2023-06-26T06:48:43;9.03;;;8.13;;
9667;SDS011;4872;48.316;10.650;2023-06-26T06:51:11;9.87;;;8.90;;
9667;SDS011;4872;48.316;10.650;2023-06-26T06:53:38;8.90;;;7.90;;
9667;SDS011;4872;48.316;10.650;2023-06-26T06:56:05;13.33;;;8.27;;
9667;SDS011;4872;48.316;10.650;2023-06-26T06:58:31;9.73;;;7.77;;
9667;SDS011;4872;48.316;10.650;2023-06-26T07:01:00;9.57;;;7.70;;
9667;SDS011;4872;48.316;10.650;2023-06-26T07:03:29;8.77;;;7.93;;
9667;SDS011;4872;48.316;10.650;2023-06-26T07:05:56;8.60;;;7.70;;
9667;SDS011;4872;48.316;10.650;2023-06-26T07:08:23;9.03;;;7.87;;
9667;SDS011;4872;48.316;10.650;2023-06-26T07:10:49;8.63;;;7.70;;
9667;SDS011;4872;48.316;10.650;2023-06-26T07:13:16;9.20;;;7.67;;
9667;SDS011;4872;48.316;10.650;2023-06-26T07:15:43;8.30;;;7.17;;
9667;SDS011;4872;48.316;10.650;2023-06-26T07:18:14;7.87;;;7.03;;
9667;SDS011;4872;48.316;10.650;2023-06-26T07:20:41;9.23;;;6.97;;
9667;SDS011;4872;48.316;10.650;2023-06-26T07:23:07;8.37;;;7.47;;
9667;SDS011;4872;48.316;10.650;2023-06-26T07:25:34;8.67;;;7.50;;
9667;SDS011;4872;48.316;10.650;2023-06-26T07:28:01;8.63;;;6.97;;
9667;SDS011;4872;48.316;10.650;2023-06-26T07:30:28;11.43;;;7.93;;
9667;SDS011;4872;48.316;10.650;2023-06-26T07:32:55;9.67;;;8.13;;
9667;SDS011;4872;48.316;10.650;2023-06-26T07:35:23;9.87;;;8.20;;
9667;SDS011;4872;48.316;10.650;2023-06-26T07:37:52;8.37;;;7.53;;
9667;SDS011;4872;48.316;10.650;2023-06-26T07:40:19;10.47;;;7.60;;
9667;SDS011;4872;48.316;10.650;2023-06-26T07:42:46;8.03;;;7.23;;
9667;SDS011;4872;48.316;10.650;2023-06-26T07:45:12;8.20;;;7.17;;
9667;SDS011;4872;48.316;10.650;2023-06-26T07:47:39;8.07;;;7.00;;
9667;SDS011;4872;48.316;10.650;2023-06-26T07:50:08;7.93;;;7.13;;
9667;SDS011;4872;48.316;10.650;2023-06-26T07:52:36;7.50;;;6.70;;
9667;SDS011;4872;48.316;10.650;2023-06-26T07:55:03;7.53;;;6.73;;
9667;SDS011;4872;48.316;10.650;2023-06-26T07:57:30;7.90;;;7.10;;
9667;SDS011;4872;48.316;10.650;2023-06-26T07:59:58;8.40;;;7.60;;
9667;SDS011;4872;48.316;10.650;2023-06-26T08:02:24;6.87;;;6.17;;
9667;SDS011;4872;48.316;10.650;2023-06-26T08:04:51;8.50;;;7.30;;
9667;SDS011;4872;48.316;10.650;2023-06-26T08:07:18;7.30;;;6.60;;
9667;SDS011;4872;48.316;10.650;2023-06-26T08:09:46;7.60;;;6.80;;
9667;SDS011;4872;48.316;10.650;2023-06-26T08:12:13;10.63;;;7.53;;
9667;SDS011;4872;48.316;10.650;2023-06-26T08:14:39;6.93;;;6.33;;
9667;SDS011;4872;48.316;10.650;2023-06-26T08:17:06;7.27;;;6.50;;
9667;SDS011;4872;48.316;10.650;2023-06-26T08:19:33;7.00;;;6.40;;
9667;SDS011;4872;48.316;10.650;2023-06-26T08:21:59;7.90;;;6.47;;
9667;SDS011;4872;48.316;10.650;2023-06-26T08:24:26;7.43;;;6.67;;
9667;SDS011;4872;48.316;10.650;2023-06-26T08:26:54;6.77;;;6.17;;
9667;SDS011;4872;48.316;10.650;2023-06-26T08:29:21;7.93;;;7.00;;
9667;SDS011;4872;48.316;10.650;2023-06-26T08:31:48;7.03;;;6.33;;
9667;SDS011;4872;48.316;10.650;2023-06-26T08:34:15;7.43;;;6.73;;
9667;SDS011;4872;48.316;10.650;2023-06-26T08:36:41;6.73;;;6.03;;
9667;SDS011;4872;48.316;10.650;2023-06-26T08:39:09;7.07;;;5.83;;
9667;SDS011;4872;48.316;10.650;2023-06-26T08:41:36;6.23;;;5.73;;
9667;SDS011;4872;48.316;10.650;2023-06-26T08:44:04;7.37;;;6.00;;
9667;SDS011;4872;48.316;10.650;2023-06-26T08:46:31;7.30;;;6.50;;
9667;SDS011;4872;48.316;10.650;2023-06-26T08:49:00;6.63;;;6.03;;
9667;SDS011;4872;48.316;10.650;2023-06-26T08:51:31;8.07;;;6.17;;
9667;SDS011;4872;48.316;10.650;2023-06-26T08:54:02;7.10;;;6.37;;
9667;SDS011;4872;48.316;10.650;2023-06-26T08:56:35;7.20;;;6.50;;
9667;SDS011;4872;48.316;10.650;2023-06-26T08:59:04;6.43;;;5.87;;
9667;SDS011;4872;48.316;10.650;2023-06-26T09:01:31;6.93;;;6.23;;
9667;SDS011;4872;48.316;10.650;2023-06-26T09:03:58;7.83;;;6.23;;
9667;SDS011;4872;48.316;10.650;2023-06-26T09:06:25;6.90;;;6.20;;
9667;SDS011;4872;48.316;10.650;2023-06-26T09:08:52;7.27;;;6.43;;
9667;SDS011;4872;48.316;10.650;2023-06-26T09:11:19;6.37;;;5.73;;
9667;SDS011;4872;48.316;10.650;2023-06-26T09:13:46;6.77;;;5.53;;
9667;SDS011;4872;48.316;10.650;2023-06-26T09:16:14;7.07;;;5.63;;
9667;SDS011;4872;48.316;10.650;2023-06-26T09:18:41;6.30;;;5.80;;
9667;SDS011;4872;48.316;10.650;2023-06-26T09:21:08;6.70;;;6.10;;
9667;SDS011;4872;48.316;10.650;2023-06-26T09:23:36;6.90;;;6.20;;
9667;SDS011;4872;48.316;10.650;2023-06-26T09:26:03;7.93;;;6.40;;
9667;SDS011;4872;48.316;10.650;2023-06-26T09:28:30;7.33;;;6.73;;
9667;SDS011;4872;48.316;10.650;2023-06-26T09:31:00;7.03;;;6.37;;
9667;SDS011;4872;48.316;10.650;2023-06-26T09:33:32;7.00;;;5.70;;
9667;SDS011;4872;48.316;10.650;2023-06-26T09:36:00;6.93;;;5.83;;
9667;SDS011;4872;48.316;10.650;2023-06-26T09:38:27;6.37;;;5.77;;
9667;SDS011;4872;48.316;10.650;2023-06-26T09:40:54;6.77;;;5.60;;
9667;SDS011;4872;48.316;10.650;2023-06-26T09:43:21;6.00;;;5.20;;
9667;SDS011;4872;48.316;10.650;2023-06-26T09:45:48;6.63;;;5.40;;
9667;SDS011;4872;48.316;10.650;2023-06-26T09:48:14;6.67;;;5.50;;
9667;SDS011;4872;48.316;10.650;2023-06-26T09:50:43;6.60;;;5.90;;
9667;SDS011;4872;48.316;10.650;2023-06-26T09:53:11;5.93;;;5.20;;
9667;SDS011;4872;48.316;10.650;2023-06-26T09:55:39;6.10;;;5.50;;
9667;SDS011;4872;48.316;10.650;2023-06-26T09:58:08;6.17;;;5.40;;
9667;SDS011;4872;48.316;10.650;2023-06-26T10:00:39;6.10;;;5.60;;
9667;SDS011;4872;48.316;10.650;2023-06-26T10:03:06;7.07;;;6.00;;
9667;SDS011;4872;48.316;10.650;2023-06-26T10:05:33;5.70;;;5.20;;
9667;SDS011;4872;48.316;10.650;2023-06-26T10:08:01;6.50;;;5.90;;
9667;SDS011;4872;48.316;10.650;2023-06-26T10:10:30;6.37;;;5.40;;
9667;SDS011;4872;48.316;10.650;2023-06-26T10:12:59;6.33;;;5.70;;
9667;SDS011;4872;48.316;10.650;2023-06-26T10:15:34;7.00;;;6.03;;
9667;SDS011;4872;48.316;10.650;2023-06-26T10:18:02;6.37;;;5.50;;
9667;SDS011;4872;48.316;10.650;2023-06-26T10:20:30;5.90;;;5.30;;
9667;SDS011;4872;48.316;10.650;2023-06-26T10:22:57;6.20;;;5.60;;
9667;SDS011;4872;48.316;10.650;2023-06-26T10:25:28;7.07;;;6.37;;
9667;SDS011;4872;48.316;10.650;2023-06-26T10:27:57;6.73;;;5.43;;
9667;SDS011;4872;48.316;10.650;2023-06-26T10:30:28;5.90;;;5.30;;
9667;SDS011;4872;48.316;10.650;2023-06-26T10:32:57;6.40;;;5.80;;
9667;SDS011;4872;48.316;10.650;2023-06-26T10:35:27;8.00;;;6.13;;
9667;SDS011;4872;48.316;10.650;2023-06-26T10:38:00;7.67;;;5.93;;
9667;SDS011;4872;48.316;10.650;2023-06-26T10:40:39;8.17;;;5.83;;
9667;SDS011;4872;48.316;10.650;2023-06-26T10:43:07;7.40;;;6.53;;
9667;SDS011;4872;48.316;10.650;2023-06-26T10:45:36;6.10;;;5.57;;
9667;SDS011;4872;48.316;10.650;2023-06-26T10:48:03;6.90;;;6.23;;
9667;SDS011;4872;48.316;10.650;2023-06-26T10:50:30;7.30;;;6.17;;
9667;SDS011;4872;48.316;10.650;2023-06-26T10:53:15;6.53;;;5.90;;
9667;SDS011;4872;48.316;10.650;2023-06-26T10:55:50;6.47;;;5.93;;
9667;SDS011;4872;48.316;10.650;2023-06-26T10:58:28;10.03;;;6.57;;
9667;SDS011;4872;48.316;10.650;2023-06-26T11:03:41;6.20;;;5.53;;
9667;SDS011;4872;48.316;10.650;2023-06-26T11:06:11;8.03;;;6.80;;
9667;SDS011;4872;48.316;10.650;2023-06-26T11:08:45;6.77;;;6.10;;
9667;SDS011;4872;48.316;10.650;2023-06-26T11:11:13;7.13;;;6.10;;
9667;SDS011;4872;48.316;10.650;2023-06-26T11:13:40;6.83;;;5.97;;
9667;SDS011;4872;48.316;10.650;2023-06-26T11:16:08;6.90;;;6.20;;
9667;SDS011;4872;48.316;10.650;2023-06-26T11:18:34;6.50;;;5.93;;
9667;SDS011;4872;48.316;10.650;2023-06-26T11:21:05;6.63;;;5.87;;
9667;SDS011;4872;48.316;10.650;2023-06-26T11:23:32;7.73;;;6.03;;
9667;SDS011;4872;48.316;10.650;2023-06-26T11:26:14;7.97;;;6.50;;
9667;SDS011;4872;48.316;10.650;2023-06-26T11:28:45;7.23;;;6.53;;
9667;SDS011;4872;48.316;10.650;2023-06-26T11:31:26;9.83;;;6.90;;
9667;SDS011;4872;48.316;10.650;2023-06-26T11:33:55;6.63;;;5.83;;
9667;SDS011;4872;48.316;10.650;2023-06-26T11:36:23;6.47;;;5.87;;
9667;SDS011;4872;48.316;10.650;2023-06-26T11:38:54;7.50;;;6.70;;
9667;SDS011;4872;48.316;10.650;2023-06-26T11:41:23;6.77;;;6.17;;
9667;SDS011;4872;48.316;10.650;2023-06-26T11:43:51;11.90;;;6.03;;
9667;SDS011;4872;48.316;10.650;2023-06-26T11:46:19;8.47;;;6.33;;
9667;SDS011;4872;48.316;10.650;2023-06-26T11:48:47;9.63;;;6.30;;
9667;SDS011;4872;48.316;10.650;2023-06-26T11:51:14;7.50;;;6.17;;
9667;SDS011;4872;48.316;10.650;2023-06-26T11:53:42;7.20;;;5.80;;
9667;SDS011;4872;48.316;10.650;2023-06-26T11:56:09;8.77;;;6.07;;
9667;SDS011;4872;48.316;10.650;2023-06-26T12:01:25;6.27;;;5.67;;
9667;SDS011;4872;48.316;10.650;2023-06-26T12:03:57;7.10;;;6.40;;
9667;SDS011;4872;48.316;10.650;2023-06-26T12:06:26;6.97;;;6.37;;
9667;SDS011;4872;48.316;10.650;2023-06-26T12:08:54;6.23;;;5.73;;
9667;SDS011;4872;48.316;10.650;2023-06-26T12:11:21;6.93;;;5.93;;
9667;SDS011;4872;48.316;10.650;2023-06-26T12:13:50;7.03;;;6.33;;
9667;SDS011;4872;48.316;10.650;2023-06-26T12:16:18;6.97;;;6.17;;
9667;SDS011;4872;48.316;10.650;2023-06-26T12:18:45;7.33;;;6.60;;
9667;SDS011;4872;48.316;10.650;2023-06-26T12:21:28;8.10;;;6.17;;
9667;SDS011;4872;48.316;10.650;2023-06-26T12:24:13;7.37;;;6.10;;
9667;SDS011;4872;48.316;10.650;2023-06-26T12:26:41;5.97;;;5.47;;
9667;SDS011;4872;48.316;10.650;2023-06-26T12:29:10;7.10;;;6.20;;
9667;SDS011;4872;48.316;10.650;2023-06-26T12:31:40;6.15;;;5.65;;
9667;SDS011;4872;48.316;10.650;2023-06-26T12:34:11;9.38;;;6.22;;
9667;SDS011;4872;48.316;10.650;2023-06-26T12:36:42;6.10;;;5.50;;
9667;SDS011;4872;48.316;10.650;2023-06-26T12:39:10;6.93;;;6.30;;
9667;SDS011;4872;48.316;10.650;2023-06-26T12:41:47;7.15;;;6.38;;
9667;SDS011;4872;48.316;10.650;2023-06-26T12:44:17;6.90;;;5.63;;
9667;SDS011;4872;48.316;10.650;2023-06-26T12:46:49;6.45;;;5.85;;
9667;SDS011;4872;48.316;10.650;2023-06-26T12:49:20;7.45;;;6.20;;
9667;SDS011;4872;48.316;10.650;2023-06-26T12:51:55;6.78;;;6.20;;
9667;SDS011;4872;48.316;10.650;2023-06-26T12:54:22;6.45;;;5.78;;
9667;SDS011;4872;48.316;10.650;2023-06-26T12:56:49;6.93;;;6.00;;
9667;SDS011;4872;48.316;10.650;2023-06-26T12:59:16;6.65;;;6.05;;
9667;SDS011;4872;48.316;10.650;2023-06-26T13:01:42;7.10;;;6.45;;
9667;SDS011;4872;48.316;10.650;2023-06-26T13:04:10;6.50;;;5.88;;
9667;SDS011;4872;48.316;10.650;2023-06-26T13:06:37;7.28;;;6.57;;
9667;SDS011;4872;48.316;10.650;2023-06-26T13:09:04;6.35;;;5.75;;
9667;SDS011;4872;48.316;10.650;2023-06-26T13:11:31;6.40;;;5.80;;
9667;SDS011;4872;48.316;10.650;2023-06-26T13:13:58;6.30;;;5.70;;
9667;SDS011;4872;48.316;10.650;2023-06-26T13:16:25;6.80;;;6.15;;
9667;SDS011;4872;48.316;10.650;2023-06-26T13:18:52;6.65;;;5.82;;
9667;SDS011;4872;48.316;10.650;2023-06-26T13:21:20;6.57;;;5.88;;
9667;SDS011;4872;48.316;10.650;2023-06-26T13:23:46;6.32;;;5.70;;
9667;SDS011;4872;48.316;10.650;2023-06-26T13:26:13;6.30;;;5.72;;
9667;SDS011;4872;48.316;10.650;2023-06-26T13:28:40;6.25;;;5.65;;
9667;SDS011;4872;48.316;10.650;2023-06-26T13:31:07;8.32;;;6.20;;
9667;SDS011;4872;48.316;10.650;2023-06-26T13:33:34;11.23;;;6.40;;
9667;SDS011;4872;48.316;10.650;2023-06-26T13:36:00;6.10;;;5.60;;
9667;SDS011;4872;48.316;10.650;2023-06-26T13:38:32;6.65;;;6.05;;
9667;SDS011;4872;48.316;10.650;2023-06-26T13:40:59;7.05;;;6.00;;
9667;SDS011;4872;48.316;10.650;2023-06-26T13:43:27;7.22;;;6.55;;
9667;SDS011;4872;48.316;10.650;2023-06-26T13:45:55;6.53;;;5.72;;
9667;SDS011;4872;48.316;10.650;2023-06-26T13:48:22;6.45;;;5.82;;
9667;SDS011;4872;48.316;10.650;2023-06-26T13:50:50;6.80;;;6.13;;
9667;SDS011;4872;48.316;10.650;2023-06-26T13:53:17;9.13;;;6.45;;
9667;SDS011;4872;48.316;10.650;2023-06-26T13:55:45;7.32;;;6.07;;
9667;SDS011;4872;48.316;10.650;2023-06-26T13:58:12;9.13;;;5.82;;
9667;SDS011;4872;48.316;10.650;2023-06-26T14:00:39;8.65;;;6.13;;
9667;SDS011;4872;48.316;10.650;2023-06-26T14:03:09;7.40;;;6.20;;
9667;SDS011;4872;48.316;10.650;2023-06-26T14:05:36;6.57;;;5.78;;
9667;SDS011;4872;48.316;10.650;2023-06-26T14:08:04;7.18;;;6.10;;
9667;SDS011;4872;48.316;10.650;2023-06-26T14:10:31;9.35;;;6.05;;
9667;SDS011;4872;48.316;10.650;2023-06-26T14:13:00;8.32;;;6.25;;
9667;SDS011;4872;48.316;10.650;2023-06-26T14:15:28;6.38;;;5.78;;
9667;SDS011;4872;48.316;10.650;2023-06-26T14:17:54;6.93;;;6.22;;
9667;SDS011;4872;48.316;10.650;2023-06-26T14:20:21;7.28;;;6.57;;
9667;SDS011;4872;48.316;10.650;2023-06-26T14:22:49;10.02;;;6.28;;
9667;SDS011;4872;48.316;10.650;2023-06-26T14:25:16;8.00;;;7.20;;
9667;SDS011;4872;48.316;10.650;2023-06-26T14:27:43;6.70;;;6.10;;
9667;SDS011;4872;48.316;10.650;2023-06-26T14:30:11;7.05;;;6.35;;
9667;SDS011;4872;48.316;10.650;2023-06-26T14:32:38;6.72;;;6.07;;
9667;SDS011;4872;48.316;10.650;2023-06-26T14:35:05;7.88;;;7.10;;
9667;SDS011;4872;48.316;10.650;2023-06-26T14:37:32;7.38;;;6.68;;
9667;SDS011;4872;48.316;10.650;2023-06-26T14:40:01;7.72;;;7.00;;
9667;SDS011;4872;48.316;10.650;2023-06-26T14:42:28;7.07;;;6.47;;
9667;SDS011;4872;48.316;10.650;2023-06-26T14:44:55;7.57;;;6.78;;
9667;SDS011;4872;48.316;10.650;2023-06-26T14:47:23;7.25;;;6.57;;
9667;SDS011;4872;48.316;10.650;2023-06-26T14:49:50;7.55;;;6.85;;
9667;SDS011;4872;48.316;10.650;2023-06-26T14:52:16;6.78;;;6.22;;
9667;SDS011;4872;48.316;10.650;2023-06-26T14:54:43;7.45;;;6.72;;
9667;SDS011;4872;48.316;10.650;2023-06-26T14:57:10;8.93;;;6.72;;
9667;SDS011;4872;48.316;10.650;2023-06-26T14:59:37;7.15;;;6.47;;
9667;SDS011;4872;48.316;10.650;2023-06-26T15:02:04;7.47;;;6.72;;
9667;SDS011;4872;48.316;10.650;2023-06-26T15:04:32;7.20;;;6.30;;
9667;SDS011;4872;48.316;10.650;2023-06-26T15:06:59;7.72;;;6.95;;
9667;SDS011;4872;48.316;10.650;2023-06-26T15:09:26;8.65;;;7.00;;
9667;SDS011;4872;48.316;10.650;2023-06-26T15:11:52;7.20;;;6.60;;
9667;SDS011;4872;48.316;10.650;2023-06-26T15:14:19;8.15;;;7.35;;
9667;SDS011;4872;48.316;10.650;2023-06-26T15:16:46;7.30;;;6.60;;
9667;SDS011;4872;48.316;10.650;2023-06-26T15:19:12;7.13;;;6.53;;
9667;SDS011;4872;48.316;10.650;2023-06-26T15:21:41;8.73;;;6.70;;
9667;SDS011;4872;48.316;10.650;2023-06-26T15:24:07;7.65;;;6.95;;
9667;SDS011;4872;48.316;10.650;2023-06-26T15:26:34;7.67;;;6.93;;
9667;SDS011;4872;48.316;10.650;2023-06-26T15:29:01;8.07;;;7.37;;
9667;SDS011;4872;48.316;10.650;2023-06-26T15:31:28;8.53;;;7.60;;
9667;SDS011;4872;48.316;10.650;2023-06-26T15:33:55;10.23;;;7.40;;
9667;SDS011;4872;48.316;10.650;2023-06-26T15:36:22;8.77;;;7.60;;
9667;SDS011;4872;48.316;10.650;2023-06-26T15:38:50;14.70;;;8.17;;
9667;SDS011;4872;48.316;10.650;2023-06-26T15:41:17;16.40;;;9.47;;
9667;SDS011;4872;48.316;10.650;2023-06-26T15:43:43;13.23;;;10.10;;
9667;SDS011;4872;48.316;10.650;2023-06-26T15:46:10;12.33;;;9.30;;
9667;SDS011;4872;48.316;10.650;2023-06-26T15:48:37;11.47;;;9.47;;
9667;SDS011;4872;48.316;10.650;2023-06-26T15:51:04;8.97;;;8.07;;
9667;SDS011;4872;48.316;10.650;2023-06-26T15:53:33;7.50;;;5.77;;
9667;SDS011;4872;48.316;10.650;2023-06-26T15:56:05;7.60;;;5.77;;
9667;SDS011;4872;48.316;10.650;2023-06-26T15:58:32;6.57;;;5.33;;
9667;SDS011;4872;48.316;10.650;2023-06-26T16:01:00;7.83;;;5.43;;
9667;SDS011;4872;48.316;10.650;2023-06-26T16:03:26;7.50;;;5.30;;
9667;SDS011;4872;48.316;10.650;2023-06-26T16:05:53;6.57;;;5.50;;
9667;SDS011;4872;48.316;10.650;2023-06-26T16:08:20;8.47;;;5.93;;
9667;SDS011;4872;48.316;10.650;2023-06-26T16:10:46;5.80;;;5.20;;
9667;SDS011;4872;48.316;10.650;2023-06-26T16:13:14;6.70;;;5.80;;
9667;SDS011;4872;48.316;10.650;2023-06-26T16:15:43;6.67;;;6.00;;
9667;SDS011;4872;48.316;10.650;2023-06-26T16:18:10;7.23;;;6.53;;
9667;SDS011;4872;48.316;10.650;2023-06-26T16:20:37;7.57;;;5.77;;
9667;SDS011;4872;48.316;10.650;2023-06-26T16:23:04;7.13;;;5.43;;
9667;SDS011;4872;48.316;10.650;2023-06-26T16:25:30;7.03;;;6.20;;
9667;SDS011;4872;48.316;10.650;2023-06-26T16:27:57;6.70;;;5.70;;
9667;SDS011;4872;48.316;10.650;2023-06-26T16:30:25;6.43;;;5.70;;
9667;SDS011;4872;48.316;10.650;2023-06-26T16:32:52;7.07;;;6.37;;
9667;SDS011;4872;48.316;10.650;2023-06-26T16:35:19;8.37;;;6.67;;
9667;SDS011;4872;48.316;10.650;2023-06-26T16:37:46;7.83;;;7.03;;
9667;SDS011;4872;48.316;10.650;2023-06-26T16:40:13;7.43;;;6.70;;
9667;SDS011;4872;48.316;10.650;2023-06-26T16:42:39;8.10;;;6.93;;
9667;SDS011;4872;48.316;10.650;2023-06-26T16:45:07;7.03;;;6.33;;
9667;SDS011;4872;48.316;10.650;2023-06-26T16:47:36;7.50;;;6.67;;
9667;SDS011;4872;48.316;10.650;2023-06-26T16:50:03;6.73;;;6.03;;
9667;SDS011;4872;48.316;10.650;2023-06-26T16:52:30;10.23;;;7.63;;
9667;SDS011;4872;48.316;10.650;2023-06-26T16:54:57;12.13;;;8.33;;
9667;SDS011;4872;48.316;10.650;2023-06-26T16:57:23;10.50;;;8.13;;
9667;SDS011;4872;48.316;10.650;2023-06-26T16:59:50;11.53;;;7.97;;
9667;SDS011;4872;48.316;10.650;2023-06-26T17:02:17;12.90;;;7.80;;
9667;SDS011;4872;48.316;10.650;2023-06-26T17:04:45;9.73;;;7.50;;
9667;SDS011;4872;48.316;10.650;2023-06-26T17:07:12;9.77;;;8.30;;
9667;SDS011;4872;48.316;10.650;2023-06-26T17:09:39;11.67;;;8.17;;
9667;SDS011;4872;48.316;10.650;2023-06-26T17:12:06;9.77;;;8.40;;
9667;SDS011;4872;48.316;10.650;2023-06-26T17:14:33;8.43;;;7.60;;
9667;SDS011;4872;48.316;10.650;2023-06-26T17:17:00;8.87;;;7.97;;
9667;SDS011;4872;48.316;10.650;2023-06-26T17:19:26;9.63;;;7.70;;
9667;SDS011;4872;48.316;10.650;2023-06-26T17:21:54;10.80;;;8.93;;
9667;SDS011;4872;48.316;10.650;2023-06-26T17:24:21;11.33;;;9.50;;
9667;SDS011;4872;48.316;10.650;2023-06-26T17:26:49;9.93;;;8.80;;
9667;SDS011;4872;48.316;10.650;2023-06-26T17:29:16;9.33;;;8.13;;
9667;SDS011;4872;48.316;10.650;2023-06-26T17:31:43;11.07;;;8.60;;
9667;SDS011;4872;48.316;10.650;2023-06-26T17:34:10;15.17;;;13.37;;
9667;SDS011;4872;48.316;10.650;2023-06-26T17:36:36;12.43;;;10.03;;
9667;SDS011;4872;48.316;10.650;2023-06-26T17:39:04;11.77;;;9.63;;
9667;SDS011;4872;48.316;10.650;2023-06-26T17:41:31;10.13;;;9.07;;
9667;SDS011;4872;48.316;10.650;2023-06-26T17:43:58;10.37;;;9.37;;
9667;SDS011;4872;48.316;10.650;2023-06-26T17:46:25;12.97;;;9.07;;
9667;SDS011;4872;48.316;10.650;2023-06-26T17:48:51;10.57;;;9.47;;
9667;SDS011;4872;48.316;10.650;2023-06-26T17:51:18;10.10;;;8.93;;
9667;SDS011;4872;48.316;10.650;2023-06-26T17:53:45;9.27;;;8.40;;
9667;SDS011;4872;48.316;10.650;2023-06-26T17:56:17;10.47;;;9.40;;
9667;SDS011;4872;48.316;10.650;2023-06-26T17:58:43;11.17;;;9.97;;
9667;SDS011;4872;48.316;10.650;2023-06-26T18:01:11;11.00;;;9.77;;
9667;SDS011;4872;48.316;10.650;2023-06-26T18:03:38;14.03;;;12.63;;
9667;SDS011;4872;48.316;10.650;2023-06-26T18:06:05;15.80;;;14.17;;
9667;SDS011;4872;48.316;10.650;2023-06-26T18:08:31;11.97;;;10.70;;
9667;SDS011;4872;48.316;10.650;2023-06-26T18:10:58;13.77;;;12.33;;
9667;SDS011;4872;48.316;10.650;2023-06-26T18:13:27;12.57;;;11.27;;
9667;SDS011;4872;48.316;10.650;2023-06-26T18:15:54;10.73;;;9.60;;
9667;SDS011;4872;48.316;10.650;2023-06-26T18:18:21;10.90;;;9.80;;
9667;SDS011;4872;48.316;10.650;2023-06-26T18:20:47;12.80;;;9.43;;
9667;SDS011;4872;48.316;10.650;2023-06-26T18:23:14;11.90;;;9.50;;
9667;SDS011;4872;48.316;10.650;2023-06-26T18:25:41;10.70;;;8.70;;
9667;SDS011;4872;48.316;10.650;2023-06-26T18:28:08;9.70;;;8.70;;
9667;SDS011;4872;48.316;10.650;2023-06-26T18:30:37;8.43;;;7.63;;
9667;SDS011;4872;48.316;10.650;2023-06-26T18:33:04;9.10;;;7.30;;
9667;SDS011;4872;48.316;10.650;2023-06-26T18:35:32;10.17;;;7.33;;
9667;SDS011;4872;48.316;10.650;2023-06-26T18:37:58;8.50;;;7.43;;
9667;SDS011;4872;48.316;10.650;2023-06-26T18:40:25;8.20;;;6.90;;
9667;SDS011;4872;48.316;10.650;2023-06-26T18:42:52;9.20;;;7.80;;
9667;SDS011;4872;48.316;10.650;2023-06-26T18:45:19;9.17;;;8.20;;
9667;SDS011;4872;48.316;10.650;2023-06-26T18:47:47;7.70;;;6.93;;
9667;SDS011;4872;48.316;10.650;2023-06-26T18:50:15;9.17;;;7.30;;
9667;SDS011;4872;48.316;10.650;2023-06-26T18:52:44;10.33;;;7.30;;
9667;SDS011;4872;48.316;10.650;2023-06-26T18:55:10;8.30;;;6.70;;
9667;SDS011;4872;48.316;10.650;2023-06-26T18:57:37;9.23;;;7.10;;
9667;SDS011;4872;48.316;10.650;2023-06-26T19:00:06;7.03;;;6.33;;
9667;SDS011;4872;48.316;10.650;2023-06-26T19:02:34;9.37;;;6.53;;
9667;SDS011;4872;48.316;10.650;2023-06-26T19:05:02;7.80;;;6.90;;
9667;SDS011;4872;48.316;10.650;2023-06-26T19:07:29;8.53;;;6.97;;
9667;SDS011;4872;48.316;10.650;2023-06-26T19:09:56;10.60;;;7.17;;
9667;SDS011;4872;48.316;10.650;2023-06-26T19:12:23;8.00;;;6.90;;